Main page
METAR-TAF:

METAR-TAF

Airports :

Jim Kelly Field

Lexington, Nebraska, United States

latitude: 40-47-28N, longitude: 099-46-38W, elevation: 2414 ft

Current weather observation

The report was made 13 minutes ago, at 01:35 UTC
Wind 7 mph from the South/Southeast
Temperature 66°F
Humidity 52%
Pressure 29.72 in. Hg
Visibility: 10 miles
Clear sky

METAR: KLXN 070135Z AUTO 16006KT 10SM CLR 19/09 A2972 RMK AO2 T01870090

Time: 20:48 (01:48 UTC)


TAF: missing

Weather observations and forecasts of more than 4000 airports (METAR and TAF reports).

The available stations are represented by yellow and red dots on the map.

Hover mouse over dot to see the name of the station.

Then click to see weather observations and forecasts.

To change the map : click on the green buttons with a black cross to zoom in, on the green button with a dash to zoom out, or on the green arrows for adjacent maps.


METAR-TAF: